Time;durP1;ratioP1;P1;durP2;ratioP2;P2;SDS_P1;SDS_P2;PMS_P1;PMS_P2;Temp;Humidity;BMP_temperature;BMP_pressure;BME280_temperature;BME280_humidity;BME280_pressure;Samples;Min_cycle;Max_cycle;Signal;HPM_P1;HPM_P2
2022/01/18 00:00:08;;;;;;;26.45;7.68;;;;;;;3.88;91.38;103634.16;5072811;28;20454;-69
2022/01/18 00:02:34;;;;;;;39.75;8.88;;;;;;;3.83;91.41;103620.25;5069989;28;20458;-69
2022/01/18 00:05:00;;;;;;;51.03;16.08;;;;;;;3.85;92.38;103627.22;5072490;28;20082;-69
2022/01/18 00:07:25;;;;;;;38.47;12.48;;;;;;;3.88;92.12;103634.16;5070357;28;20032;-69
2022/01/18 00:09:50;;;;;;;37.67;12.93;;;;;;;3.91;92.26;103628.59;5072494;28;20086;-69
2022/01/18 00:12:43;;;;;;;38.90;12.50;;;;;;;3.95;91.88;103630.06;5072425;28;20021;-69
2022/01/18 00:15:40;;;;;;;36.05;12.00;;;;;;;4.00;92.00;103644.00;5072656;28;20384;-69
2022/01/18 00:23:21;;;;;;;36.33;14.73;;;;;;;4.10;92.20;103636.13;5050966;28;20313;-69
2022/01/18 00:25:51;;;;;;;38.35;12.70;;;;;;;4.14;91.99;103642.13;5071153;28;20021;-69
2022/01/18 00:28:17;;;;;;;46.83;13.32;;;;;;;4.16;92.04;103634.81;5072530;28;20024;-69
2022/01/18 00:36:24;;;;;;;29.65;10.77;;;;;;;4.16;92.25;103648.22;5072213;28;20044;-69
2022/01/18 00:38:49;;;;;;;31.10;10.13;;;;;;;4.22;92.48;103653.13;5072561;28;20425;-69
2022/01/18 00:41:17;;;;;;;27.85;9.55;;;;;;;4.22;92.53;103645.94;5072392;28;20025;-69
2022/01/18 00:43:43;;;;;;;30.05;9.77;;;;;;;4.24;92.91;103653.84;5071822;28;20035;-69
2022/01/18 00:46:11;;;;;;;29.00;9.38;;;;;;;4.25;92.73;103653.75;5072486;28;20036;-68
2022/01/18 00:48:37;;;;;;;35.15;9.73;;;;;;;4.31;93.05;103656.97;5072042;28;20025;-69
2022/01/18 00:51:05;;;;;;;28.45;8.93;;;;;;;4.33;92.83;103660.38;5072615;28;20024;-69
2022/01/18 00:53:32;;;;;;;37.70;9.82;;;;;;;4.35;92.67;103666.47;5072102;28;20056;-69
2022/01/18 00:58:30;;;;;;;27.48;9.23;;;;;;;4.34;92.81;103672.81;5072117;28;20379;-69
2022/01/18 01:00:55;;;;;;;31.25;8.93;;;;;;;4.34;92.72;103672.81;5069828;28;20055;-69
2022/01/18 01:03:20;;;;;;;38.53;9.70;;;;;;;4.34;93.34;103670.97;5072269;28;20032;-69
2022/01/18 01:05:45;;;;;;;90.40;30.40;;;;;;;4.34;93.37;103668.28;5071912;28;20432;-69
2022/01/18 01:08:11;;;;;;;92.78;32.17;;;;;;;4.35;93.80;103667.34;5072043;28;20056;-69
2022/01/18 01:10:36;;;;;;;99.60;39.83;;;;;;;4.38;93.90;103663.56;5071927;28;20036;-69
2022/01/18 01:13:02;;;;;;;128.57;50.45;;;;;;;4.43;93.59;103672.97;5072098;28;20036;-69
2022/01/18 01:15:30;;;;;;;50.83;19.42;;;;;;;4.46;93.76;103663.84;5071802;28;20361;-68
2022/01/18 01:18:32;;;;;;;39.75;11.60;;;;;;;4.49;93.88;103665.44;5072959;28;20028;-69
2022/01/18 01:41:44;;;;;;;47.72;10.57;;;;;;;4.58;94.22;103664.75;5075509;28;20388;-69
2022/01/18 01:45:23;;;;;;;38.85;10.65;;;;;;;4.59;94.34;103655.75;5075145;28;20078;-69
2022/01/18 01:47:51;;;;;;;38.05;10.82;;;;;;;4.57;94.42;103657.66;5075028;28;20047;-69
2022/01/18 01:50:19;;;;;;;35.08;10.68;;;;;;;4.59;93.74;103661.13;5075273;28;20071;-69
2022/01/18 01:52:46;;;;;;;39.15;10.50;;;;;;;4.59;94.34;103653.91;5073687;28;20064;-69
2022/01/18 01:55:12;;;;;;;34.30;9.55;;;;;;;4.60;94.76;103646.72;5073959;28;20104;-69
2022/01/18 01:57:38;;;;;;;40.88;11.23;;;;;;;4.59;94.45;103656.59;5075188;28;20037;-69
2022/01/18 02:00:07;;;;;;;30.77;11.00;;;;;;;4.64;94.48;103658.06;5075193;28;20071;-69
2022/01/18 02:02:32;;;;;;;34.28;9.82;;;;;;;4.61;95.13;103659.16;5072697;28;20032;-69
2022/01/18 02:04:57;;;;;;;39.20;11.02;;;;;;;4.61;94.92;103657.31;5074547;28;20035;-69
2022/01/18 02:07:23;;;;;;;41.03;10.75;;;;;;;4.65;94.85;103655.28;5075059;28;20032;-70
2022/01/18 02:09:48;;;;;;;35.13;9.55;;;;;;;4.70;95.04;103657.59;5074978;28;20024;-69
2022/01/18 02:12:17;;;;;;;33.88;9.57;;;;;;;4.66;94.57;103659.66;5075454;28;20086;-69
2022/01/18 02:14:46;;;;;;;39.65;10.02;;;;;;;4.70;95.10;103657.59;5074422;28;20116;-69
2022/01/18 02:22:39;;;;;;;39.60;11.07;;;;;;;4.71;94.95;103668.22;5074326;28;20060;-69
2022/01/18 02:25:05;;;;;;;36.45;10.40;;;;;;;4.70;94.82;103657.59;5074325;28;20467;-69
2022/01/18 02:27:30;;;;;;;27.60;9.73;;;;;;;4.75;95.15;103664.31;5074333;28;20482;-69
2022/01/18 02:29:56;;;;;;;35.65;11.20;;;;;;;4.73;94.82;103663.59;5073580;28;20033;-69
2022/01/18 02:32:21;;;;;;;36.08;10.13;;;;;;;4.79;95.19;103662.28;5074265;28;20485;-69
2022/01/18 02:34:46;;;;;;;37.33;10.65;;;;;;;4.78;95.22;103656.03;5074197;28;20035;-69
2022/01/18 02:37:14;;;;;;;32.45;9.70;;;;;;;4.78;95.13;103647.97;5072903;28;20434;-69
2022/01/18 02:39:39;;;;;;;35.72;10.85;;;;;;;4.77;94.94;103642.72;5074134;28;20112;-69
2022/01/18 02:42:07;;;;;;;36.10;9.73;;;;;;;4.78;94.79;103649.81;5074325;28;20104;-69
2022/01/18 02:44:34;;;;;;;41.67;11.38;;;;;;;4.78;94.98;103647.13;5074188;28;20025;-69
2022/01/18 02:46:59;;;;;;;40.33;11.10;;;;;;;4.83;94.67;103649.47;5074011;28;20028;-69
2022/01/18 02:49:26;;;;;;;35.38;11.48;;;;;;;4.79;94.73;103646.16;5074175;28;20375;-69
2022/01/18 02:51:52;;;;;;;32.05;11.20;;;;;;;4.81;94.66;103638.00;5074028;28;20025;-69
2022/01/18 02:54:18;;;;;;;38.83;11.05;;;;;;;4.81;94.54;103649.56;5074047;28;20040;-69
2022/01/18 02:56:48;;;;;;;43.70;11.85;;;;;;;4.83;94.66;103647.66;5073807;28;20029;-70
2022/01/18 02:59:51;;;;;;;34.13;11.38;;;;;;;4.82;94.89;103647.78;5072477;28;20020;-69
2022/01/18 03:05:09;;;;;;;32.55;11.52;;;;;;;4.81;94.80;103646.06;5074136;28;20134;-71
2022/01/18 03:07:35;;;;;;;37.65;11.52;;;;;;;4.74;95.11;103649.22;5073700;28;20536;-69
2022/01/18 03:10:01;;;;;;;35.53;11.50;;;;;;;4.76;94.92;103651.78;5073209;28;20032;-69
2022/01/18 03:12:26;;;;;;;39.35;12.48;;;;;;;4.72;94.82;103648.44;5072539;28;20032;-69
2022/01/18 03:14:52;;;;;;;39.60;13.02;;;;;;;4.72;95.01;103645.75;5073770;28;20365;-69
2022/01/18 03:17:17;;;;;;;38.90;12.75;;;;;;;4.73;94.72;103639.44;5073200;28;20035;-70
2022/01/18 03:19:42;;;;;;;36.92;12.18;;;;;;;4.72;95.02;103652.97;5068362;28;20024;-77
2022/01/18 03:22:07;;;;;;;37.75;11.93;;;;;;;4.73;94.94;103655.53;5061519;28;20118;-70
2022/01/18 03:25:26;;;;;;;37.70;12.48;;;;;;;4.74;95.04;103665.31;5072259;28;20175;-74
2022/01/18 03:30:08;;;;;;;43.60;12.15;;;;;;;4.74;94.71;103653.69;5071252;28;20101;-78
2022/01/18 03:32:35;;;;;;;39.55;13.18;;;;;;;4.70;95.07;103654.94;5052082;28;20033;-79
2022/01/18 03:35:01;;;;;;;30.98;12.02;;;;;;;4.70;94.89;103658.44;5053383;28;20043;-71
2022/01/18 03:37:26;;;;;;;33.50;11.48;;;;;;;4.68;94.98;103662.22;5068309;28;20029;-70
2022/01/18 03:39:51;;;;;;;35.17;12.07;;;;;;;4.69;94.98;103667.47;5073271;28;20032;-70
2022/01/18 03:45:03;;;;;;;31.38;12.18;;;;;;;4.66;95.24;103651.59;5072606;28;20043;-70
2022/01/18 03:47:31;;;;;;;35.42;12.93;;;;;;;4.66;95.28;103662.34;5073003;28;20056;-70
2022/01/18 03:49:56;;;;;;;28.77;11.90;;;;;;;4.68;95.44;103654.16;5072835;28;20033;-70
2022/01/18 03:52:22;;;;;;;30.77;11.82;;;;;;;4.67;94.94;103661.38;5073021;28;20031;-70
2022/01/18 03:54:50;;;;;;;33.25;12.77;;;;;;;4.70;95.05;103663.81;5072679;28;20109;-70
2022/01/18 03:57:16;;;;;;;31.08;12.30;;;;;;;4.69;95.01;103670.16;5072882;28;20457;-70
2022/01/18 03:59:41;;;;;;;30.23;13.20;;;;;;;4.71;94.99;103673.59;5072625;28;20048;-70
2022/01/18 04:02:09;;;;;;;28.55;11.82;;;;;;;4.71;95.57;103673.59;5070434;28;20111;-70
2022/01/18 04:04:35;;;;;;;33.65;12.70;;;;;;;4.72;95.21;103674.44;5072878;28;20032;-70
2022/01/18 04:07:00;;;;;;;32.17;12.68;;;;;;;4.70;95.15;103677.22;5071305;28;20035;-70
2022/01/18 04:09:26;;;;;;;30.75;12.50;;;;;;;4.71;95.23;103678.06;5072904;28;20467;-70
2022/01/18 04:11:52;;;;;;;30.33;12.52;;;;;;;4.71;95.20;103683.44;5072796;28;20032;-70
2022/01/18 04:14:17;;;;;;;26.45;12.30;;;;;;;4.73;95.35;103685.03;5072642;28;20047;-69
2022/01/18 04:16:58;;;;;;;30.42;12.10;;;;;;;4.73;95.10;103679.69;5071131;28;20032;-70
2022/01/18 04:27:41;;;;;;;28.83;12.98;;;;;;;4.71;95.23;103684.31;5072293;28;20039;-70
2022/01/18 04:30:07;;;;;;;32.25;13.30;;;;;;;4.73;95.16;103694.94;5072331;28;20029;-70
2022/01/18 04:32:33;;;;;;;36.97;13.55;;;;;;;4.73;95.19;103694.94;5072240;28;20029;-70
2022/01/18 04:34:58;;;;;;;31.52;13.20;;;;;;;4.69;95.33;103688.91;5072253;28;20090;-70
2022/01/18 04:37:23;;;;;;;37.47;13.98;;;;;;;4.69;95.24;103680.88;5072429;28;20111;-70
2022/01/18 04:39:49;;;;;;;33.17;13.77;;;;;;;4.70;95.46;103687.97;5072232;28;20375;-70
2022/01/18 04:42:35;;;;;;;34.88;13.88;;;;;;;4.70;94.92;103689.81;5072424;28;20165;-70
2022/01/18 04:50:29;;;;;;;34.78;14.13;;;;;;;4.67;94.71;103690.88;5072363;28;20112;-70
2022/01/18 04:52:54;;;;;;;31.80;13.98;;;;;;;4.68;95.19;103692.59;5072584;28;20056;-70
2022/01/18 04:55:20;;;;;;;32.25;13.48;;;;;;;4.68;95.11;103684.56;5074864;28;20094;-70
2022/01/18 04:57:51;;;;;;;35.55;13.93;;;;;;;4.64;95.00;103695.63;5075805;28;20023;-70
2022/01/18 05:00:16;;;;;;;39.10;14.35;;;;;;;4.61;94.95;103692.19;5075969;28;20124;-70
2022/01/18 05:02:42;;;;;;;43.20;14.48;;;;;;;4.60;95.68;103695.84;5073796;28;20116;-70
2022/01/18 05:05:09;;;;;;;39.97;14.20;;;;;;;4.57;95.45;103695.22;5075954;28;20107;-70
2022/01/18 05:07:34;;;;;;;40.25;14.25;;;;;;;4.54;95.58;103696.28;5076084;28;20043;-70
2022/01/18 05:09:59;;;;;;;40.72;14.90;;;;;;;4.56;95.91;103696.19;5075841;28;20024;-70
2022/01/18 05:12:38;;;;;;;43.80;14.98;;;;;;;4.53;95.61;103693.72;5076066;28;20356;-70
2022/01/18 05:15:11;;;;;;;46.65;14.65;;;;;;;4.55;95.80;103705.22;5075851;28;20115;-69
2022/01/18 05:17:47;;;;;;;42.97;14.05;;;;;;;4.55;95.70;103708.75;5075920;28;20032;-70
2022/01/18 05:23:01;;;;;;;45.95;14.40;;;;;;;4.53;95.49;103708.00;5074097;28;20094;-70
2022/01/18 05:25:28;;;;;;;44.33;15.38;;;;;;;4.54;95.58;103698.13;5075882;28;20050;-70
2022/01/18 05:27:54;;;;;;;45.10;14.50;;;;;;;4.52;95.46;103703.59;5075437;28;20029;-70
2022/01/18 05:30:19;;;;;;;41.78;13.38;;;;;;;4.48;95.69;103699.44;5074110;28;20032;-70
2022/01/18 05:32:44;;;;;;;50.42;14.73;;;;;;;4.48;95.56;103706.63;5075651;28;20052;-70
2022/01/18 05:35:09;;;;;;;39.25;14.98;;;;;;;4.46;95.56;103708.59;5075652;28;20032;-70
2022/01/18 05:37:35;;;;;;;41.30;14.68;;;;;;;4.44;95.57;103712.22;5075553;28;20032;-70
2022/01/18 05:40:00;;;;;;;43.50;14.20;;;;;;;4.47;95.66;103710.28;5074974;28;20425;-70
2022/01/18 05:42:25;;;;;;;44.20;14.07;;;;;;;4.47;95.50;103704.91;5075699;28;20039;-70
2022/01/18 05:44:50;;;;;;;45.97;14.80;;;;;;;4.47;95.45;103696.88;5075120;28;20020;-70
2022/01/18 05:47:16;;;;;;;44.17;13.88;;;;;;;4.43;95.93;103697.09;5074039;28;20442;-70
2022/01/18 05:49:41;;;;;;;43.15;15.13;;;;;;;4.48;95.38;103693.22;5075302;28;20060;-70
2022/01/18 05:52:07;;;;;;;42.90;14.32;;;;;;;4.47;95.95;103696.88;5075082;28;20081;-70
2022/01/18 05:54:32;;;;;;;40.97;13.52;;;;;;;4.47;95.86;103699.53;5074994;28;20024;-70
2022/01/18 05:56:57;;;;;;;40.90;14.38;;;;;;;4.49;96.05;103703.84;5074754;28;20013;-70
2022/01/18 05:59:24;;;;;;;37.17;13.63;;;;;;;4.49;95.39;103697.63;5074969;28;20067;-70
2022/01/18 06:01:58;;;;;;;42.97;14.25;;;;;;;4.49;95.64;103697.63;5072236;28;20074;-70
2022/01/18 06:07:08;;;;;;;38.80;14.43;;;;;;;4.49;95.90;103700.31;5074486;28;20178;-70
2022/01/18 06:09:34;;;;;;;42.70;14.38;;;;;;;4.50;95.98;103696.63;5075039;28;20040;-70
2022/01/18 06:11:59;;;;;;;41.65;14.65;;;;;;;4.47;95.73;103691.50;5074698;28;20028;-70
2022/01/18 06:14:24;;;;;;;39.28;13.90;;;;;;;4.49;95.64;103698.47;5074876;28;20028;-70
2022/01/18 06:16:49;;;;;;;33.97;13.90;;;;;;;4.50;95.79;103694.84;5073670;28;20508;-70
2022/01/18 06:19:15;;;;;;;40.85;14.05;;;;;;;4.49;95.88;103703.00;5073542;28;20024;-70
2022/01/18 06:21:40;;;;;;;41.85;14.70;;;;;;;4.51;96.03;103699.22;5074852;28;20025;-70
2022/01/18 06:24:08;;;;;;;39.92;14.35;;;;;;;4.56;95.95;103698.84;5074465;28;20032;-70
2022/01/18 06:26:34;;;;;;;45.85;14.40;;;;;;;4.56;95.84;103705.09;5074657;28;20489;-70
2022/01/18 06:29:00;;;;;;;38.67;15.20;;;;;;;4.56;95.83;103698.84;5074413;28;20056;-69
2022/01/18 06:31:25;;;;;;;44.60;14.63;;;;;;;4.59;95.77;103704.03;5074638;28;20035;-70
2022/01/18 06:33:51;;;;;;;46.95;15.15;;;;;;;4.61;95.83;103696.72;5074820;28;20103;-69
2022/01/18 06:36:16;;;;;;;48.65;15.68;;;;;;;4.60;95.70;103694.97;5074401;28;20108;-70
2022/01/18 06:38:41;;;;;;;46.03;15.77;;;;;;;4.59;95.98;103691.47;5073120;28;20064;-70
2022/01/18 06:41:07;;;;;;;48.25;16.63;;;;;;;4.62;95.94;103693.06;5074457;28;20055;-69
2022/01/18 06:43:32;;;;;;;46.95;16.25;;;;;;;4.59;95.97;103687.94;5072965;28;20035;-69
2022/01/18 06:45:57;;;;;;;41.63;14.73;;;;;;;4.66;96.25;103702.56;5073729;28;20024;-69
2022/01/18 06:48:22;;;;;;;43.25;15.10;;;;;;;4.66;95.53;103699.03;5074203;28;20025;-70
2022/01/18 06:50:48;;;;;;;46.78;15.32;;;;;;;4.70;95.90;103698.69;5074167;28;20542;-70
2022/01/18 06:53:13;;;;;;;42.30;15.45;;;;;;;4.68;95.96;103703.31;5072949;28;20040;-70
2022/01/18 06:55:38;;;;;;;46.50;15.82;;;;;;;4.68;96.04;103703.31;5074091;28;20024;-70
2022/01/18 06:58:04;;;;;;;52.92;16.95;;;;;;;4.64;95.57;103707.19;5073850;28;20043;-70
2022/01/18 07:00:29;;;;;;;46.70;15.50;;;;;;;4.64;96.19;103711.72;5070685;28;20449;-70
2022/01/18 07:02:54;;;;;;;47.28;16.92;;;;;;;4.61;96.21;103713.63;5073418;28;20033;-70
2022/01/18 07:05:19;;;;;;;49.60;16.83;;;;;;;4.63;96.41;103707.31;5073966;28;20029;-69
2022/01/18 07:07:47;;;;;;;49.83;17.33;;;;;;;4.61;95.93;103712.81;5072463;28;20077;-70
2022/01/18 07:10:13;;;;;;;40.65;15.98;;;;;;;4.62;96.21;103714.53;5073663;28;20032;-70
2022/01/18 07:12:38;;;;;;;47.30;17.02;;;;;;;4.63;96.13;103721.56;5073875;28;20125;-69
2022/01/18 07:15:08;;;;;;;47.88;17.13;;;;;;;4.63;96.43;103713.53;5072253;28;20467;-70
2022/01/18 07:17:35;;;;;;;43.95;16.25;;;;;;;4.66;95.80;103715.13;5073256;28;20041;-69
2022/01/18 07:20:01;;;;;;;45.95;15.18;;;;;;;4.68;96.01;103721.22;5073350;28;20060;-70
2022/01/18 07:22:26;;;;;;;41.88;15.68;;;;;;;4.70;95.97;103722.00;5073499;28;20024;-70
2022/01/18 07:24:56;;;;;;;43.20;16.58;;;;;;;4.69;96.08;103721.13;5073497;28;20579;-70
2022/01/18 07:27:22;;;;;;;41.90;15.23;;;;;;;4.67;95.73;103716.84;5073355;28;20470;-70
2022/01/18 07:29:47;;;;;;;37.25;15.00;;;;;;;4.70;95.72;103732.72;5072172;28;20028;-70
2022/01/18 07:32:12;;;;;;;45.47;15.85;;;;;;;4.68;95.71;103735.50;5072007;28;20396;-70
2022/01/18 07:34:52;;;;;;;41.80;15.32;;;;;;;4.67;96.25;103739.16;5073394;28;20181;-70
2022/01/18 07:37:19;;;;;;;35.72;15.23;;;;;;;4.66;95.81;103731.22;5073101;28;20039;-70
2022/01/18 07:39:44;;;;;;;38.10;16.17;;;;;;;4.68;96.26;103735.50;5073215;28;20036;-70
2022/01/18 07:42:09;;;;;;;40.45;15.77;;;;;;;4.67;96.01;103730.28;5071597;28;20028;-70
2022/01/18 07:44:35;;;;;;;34.90;15.52;;;;;;;4.70;96.18;103732.72;5073278;28;20046;-70
2022/01/18 07:47:00;;;;;;;36.60;15.07;;;;;;;4.67;96.40;103728.44;5072822;28;20452;-70
2022/01/18 07:49:25;;;;;;;31.98;14.95;;;;;;;4.70;95.78;103738.09;5073376;28;20111;-70
2022/01/18 07:51:51;;;;;;;32.35;14.55;;;;;;;4.70;96.65;103738.09;5071803;28;20387;-70
2022/01/18 07:54:17;;;;;;;32.35;13.80;;;;;;;4.70;96.14;103732.72;5073038;28;20475;-70
2022/01/18 07:56:42;;;;;;;32.85;14.52;;;;;;;4.71;96.13;103737.97;5072684;28;20467;-70
2022/01/18 07:59:11;;;;;;;35.70;15.52;;;;;;;4.72;96.23;103742.34;5072395;28;20031;-70
2022/01/18 08:01:37;;;;;;;35.95;15.13;;;;;;;4.75;95.81;103752.00;5068899;28;20155;-70
2022/01/18 08:04:02;;;;;;;39.47;15.43;;;;;;;4.75;96.33;103746.63;5072650;28;20531;-70
2022/01/18 08:06:28;;;;;;;35.92;15.68;;;;;;;4.73;96.21;103744.06;5072562;28;20160;-70
2022/01/18 08:08:53;;;;;;;35.92;15.73;;;;;;;4.74;96.35;103740.41;5072394;28;20089;-70
2022/01/18 08:11:18;;;;;;;39.38;16.20;;;;;;;4.71;96.32;103746.00;5072522;28;20039;-70
2022/01/18 08:13:47;;;;;;;38.60;16.52;;;;;;;4.74;96.18;103748.47;5071455;28;20068;-70
2022/01/18 08:18:51;;;;;;;46.80;17.50;;;;;;;4.77;96.00;103747.34;5072647;28;20480;-70
2022/01/18 08:21:17;;;;;;;49.45;17.02;;;;;;;4.77;96.02;103742.00;5072432;28;20033;-70
2022/01/18 08:23:42;;;;;;;44.00;17.73;;;;;;;4.76;96.28;103733.09;5071386;28;20082;-70
2022/01/18 08:26:07;;;;;;;45.00;17.63;;;;;;;4.79;95.92;103740.91;5072236;28;20028;-70
2022/01/18 08:28:33;;;;;;;48.80;18.45;;;;;;;4.79;96.28;103738.22;5071690;28;20032;-70
2022/01/18 08:30:58;;;;;;;52.15;18.70;;;;;;;4.79;96.41;103740.91;5072217;28;20456;-70
2022/01/18 08:33:24;;;;;;;51.42;18.85;;;;;;;4.79;96.25;103738.22;5072484;28;20028;-70
2022/01/18 08:35:50;;;;;;;56.38;18.90;;;;;;;4.79;96.70;103740.06;5072699;28;20094;-70
2022/01/18 08:38:15;;;;;;;49.05;18.42;;;;;;;4.75;96.52;103731.38;5072512;28;20429;-70
2022/01/18 08:40:40;;;;;;;53.83;18.75;;;;;;;4.75;96.78;103736.75;5071181;28;20064;-69
2022/01/18 08:43:06;;;;;;;58.83;19.40;;;;;;;4.78;96.76;103732.97;5072295;28;20042;-70
2022/01/18 08:45:31;;;;;;;52.85;19.08;;;;;;;4.81;96.83;103739.97;5072145;28;20024;-70
2022/01/18 08:47:56;;;;;;;59.97;19.52;;;;;;;4.81;96.74;103737.28;5072291;28;20032;-70
2022/01/18 08:50:22;;;;;;;50.50;18.02;;;;;;;4.83;96.22;103738.88;5070852;28;20032;-70
2022/01/18 08:52:50;;;;;;;56.33;18.75;;;;;;;4.83;96.92;103744.25;5072284;28;20025;-70
2022/01/18 08:55:16;;;;;;;52.05;18.55;;;;;;;4.85;96.86;103747.66;5072082;28;20033;-70
2022/01/18 08:57:42;;;;;;;55.90;19.08;;;;;;;4.86;96.40;103741.31;5072304;28;20025;-70
2022/01/18 09:00:09;;;;;;;48.10;17.95;;;;;;;4.87;96.81;103745.69;5071502;28;20045;-70
2022/01/18 09:02:34;;;;;;;54.72;19.60;;;;;;;4.89;96.90;103751.81;5069839;28;20029;-70
2022/01/18 09:04:59;;;;;;;49.67;17.73;;;;;;;4.89;96.79;103749.16;5072160;28;20449;-70
2022/01/18 09:07:25;;;;;;;48.67;17.88;;;;;;;4.90;97.27;103739.25;5070395;28;20033;-70
2022/01/18 09:09:55;;;;;;;48.33;18.33;;;;;;;4.91;96.75;103732.94;5072183;28;20028;-70
2022/01/18 09:12:20;;;;;;;47.10;17.38;;;;;;;4.93;97.20;103745.22;5071876;28;20028;-70
2022/01/18 09:14:46;;;;;;;55.03;18.75;;;;;;;4.96;97.12;103744.16;5072045;28;20487;-70
2022/01/18 09:17:11;;;;;;;55.22;17.70;;;;;;;4.97;97.48;103751.25;5071557;28;20032;-70
2022/01/18 09:19:37;;;;;;;54.45;17.95;;;;;;;5.02;97.44;103753.56;5072042;28;20368;-69
2022/01/18 09:22:03;;;;;;;53.67;18.42;;;;;;;5.02;97.11;103753.56;5071745;28;20021;-70
2022/01/18 09:24:29;;;;;;;60.03;19.17;;;;;;;5.03;97.47;103752.59;5072011;28;20029;-69
2022/01/18 09:26:55;;;;;;;57.45;19.15;;;;;;;5.04;97.52;103760.53;5071567;28;20179;-70
2022/01/18 09:29:21;;;;;;;54.97;19.00;;;;;;;5.06;97.48;103757.75;5071741;28;20059;-70
2022/01/18 09:31:46;;;;;;;57.00;17.65;;;;;;;5.07;97.32;103757.63;5071929;28;20064;-70
2022/01/18 09:34:11;;;;;;;49.83;18.90;;;;;;;5.09;97.75;103766.41;5071416;28;20021;-69
2022/01/18 09:36:37;;;;;;;43.92;17.17;;;;;;;5.12;97.47;103766.19;5071910;28;20029;-69
2022/01/18 09:39:04;;;;;;;44.22;17.98;;;;;;;5.15;97.76;103773.16;5071388;28;20426;-70
2022/01/18 09:41:34;;;;;;;41.33;18.52;;;;;;;5.18;97.42;103769.34;5075367;28;20039;-69
2022/01/18 09:43:59;;;;;;;45.50;18.85;;;;;;;5.17;97.69;103768.50;5075495;28;20032;-69
2022/01/18 09:46:26;;;;;;;42.72;18.48;;;;;;;5.21;97.82;103764.63;5074914;28;20021;-70
2022/01/18 09:48:53;;;;;;;47.95;19.27;;;;;;;5.24;97.81;103769.75;5075347;28;20348;-70
2022/01/18 09:51:19;;;;;;;47.58;19.08;;;;;;;5.27;97.68;103771.34;5075110;28;20028;-69
2022/01/18 09:53:44;;;;;;;46.33;18.73;;;;;;;5.30;97.73;103771.13;5074978;28;20101;-70
2022/01/18 09:56:09;;;;;;;44.15;19.63;;;;;;;5.30;97.93;103773.81;5075069;28;20286;-70
2022/01/18 09:58:35;;;;;;;54.95;21.83;;;;;;;5.34;97.96;103777.94;5073586;28;20024;-70
2022/01/18 10:01:00;;;;;;;48.50;19.90;;;;;;;5.36;97.40;103777.81;5072664;28;20060;-70
2022/01/18 10:03:30;;;;;;;46.78;20.13;;;;;;;5.38;97.96;103783.94;5074847;28;20040;-70
2022/01/18 10:05:56;;;;;;;47.35;20.30;;;;;;;5.39;97.81;103773.09;5074727;28;20372;-70
2022/01/18 10:08:22;;;;;;;51.22;20.38;;;;;;;5.42;97.95;103771.97;5074740;28;20078;-70
2022/01/18 10:10:54;;;;;;;54.20;21.27;;;;;;;5.42;98.01;103775.53;5074962;28;20495;-70
2022/01/18 10:13:25;;;;;;;50.78;21.17;;;;;;;5.44;97.47;103775.41;5074573;28;20420;-70
2022/01/18 10:16:09;;;;;;;44.00;20.40;;;;;;;5.45;98.21;103780.66;5075131;28;20036;-70
2022/01/18 10:18:37;;;;;;;49.67;20.83;;;;;;;5.46;97.89;103778.84;5073568;28;20067;-70
2022/01/18 10:21:06;;;;;;;48.00;21.00;;;;;;;5.45;97.89;103771.75;5074785;28;20034;-70
2022/01/18 10:23:32;;;;;;;48.72;20.58;;;;;;;5.48;98.21;103777.75;5074739;28;20051;-70
2022/01/18 10:26:13;;;;;;;51.17;23.33;;;;;;;5.49;97.96;103774.06;5073375;28;20468;-70
2022/01/18 10:28:39;;;;;;;50.38;22.02;;;;;;;5.54;97.97;103772.84;5074398;28;20119;-69
2022/01/18 10:31:23;;;;;;;48.13;20.65;;;;;;;5.58;97.75;103767.13;5074605;28;20115;-70
2022/01/18 10:34:08;;;;;;;43.47;19.48;;;;;;;5.62;97.57;103767.75;5074648;28;20081;-70
2022/01/18 10:36:33;;;;;;;45.55;20.23;;;;;;;5.67;98.04;103766.41;5074634;28;20123;-70
2022/01/18 10:39:01;;;;;;;50.80;21.58;;;;;;;5.70;98.11;103770.69;5074244;28;20432;-70
2022/01/18 10:41:32;;;;;;;46.25;22.42;;;;;;;5.71;97.71;103761.66;5074206;28;20379;-70
2022/01/18 10:44:13;;;;;;;40.20;21.33;;;;;;;5.75;98.10;103764.94;5074037;28;20032;-70
2022/01/18 10:46:41;;;;;;;46.30;21.20;;;;;;;5.82;97.78;103758.97;5074204;28;20090;-70
2022/01/18 10:49:08;;;;;;;47.72;23.35;;;;;;;5.88;97.85;103751.41;5074178;28;20092;-70
2022/01/18 10:51:37;;;;;;;50.08;24.02;;;;;;;5.94;97.80;103745.53;5073509;28;20103;-70
2022/01/18 10:54:09;;;;;;;45.55;23.13;;;;;;;6.01;97.88;103750.34;5072847;28;20033;-70
2022/01/18 10:56:44;;;;;;;46.88;23.35;;;;;;;6.03;97.42;103745.66;5073847;28;20479;-70
2022/01/18 10:59:26;;;;;;;47.80;24.25;;;;;;;6.09;97.37;103738.97;5073810;28;20040;-69
2022/01/18 11:02:23;;;;;;;46.20;21.98;;;;;;;6.16;97.49;103740.19;5071570;28;20064;-70
2022/01/18 11:04:51;;;;;;;46.95;20.02;;;;;;;6.13;96.55;103742.25;5072284;28;20106;-70
2022/01/18 11:07:19;;;;;;;45.70;20.27;;;;;;;6.12;96.02;103733.31;5073721;28;20043;-70
2022/01/18 11:09:45;;;;;;;47.25;20.75;;;;;;;6.14;97.03;103728.66;5073851;28;20024;-70
2022/01/18 11:12:11;;;;;;;54.20;20.83;;;;;;;6.18;97.12;103726.59;5072313;28;20032;-70
2022/01/18 11:14:43;;;;;;;47.47;22.05;;;;;;;6.21;96.76;103729.88;5073731;28;20028;-70
2022/01/18 11:17:11;;;;;;;50.83;21.08;;;;;;;6.24;96.05;103728.78;5073705;28;20468;-70
2022/01/18 11:19:38;;;;;;;50.47;20.92;;;;;;;6.25;96.46;103727.81;5073604;28;20479;-69
2022/01/18 11:22:10;;;;;;;51.58;21.23;;;;;;;6.29;96.71;103723.03;5072283;28;20441;-70
2022/01/18 11:24:38;;;;;;;44.10;21.17;;;;;;;6.33;96.74;103724.50;5073536;28;20032;-70
2022/01/18 11:27:08;;;;;;;55.40;21.85;;;;;;;6.39;96.49;103724.00;5072079;28;20035;-70
2022/01/18 11:29:35;;;;;;;46.65;19.02;;;;;;;6.40;96.31;103725.69;5073607;28;20372;-70
2022/01/18 11:32:01;;;;;;;52.42;19.65;;;;;;;6.43;95.96;103725.47;5073438;28;20086;-70
2022/01/18 11:34:45;;;;;;;46.20;19.60;;;;;;;6.48;95.88;103719.69;5073233;28;20425;-70
2022/01/18 11:37:37;;;;;;;41.33;15.52;;;;;;;6.48;94.76;103712.47;5073133;28;20233;-70
2022/01/18 11:40:07;;;;;;;39.65;15.70;;;;;;;6.50;94.07;103713.19;5073295;28;20072;-70
2022/01/18 11:42:54;;;;;;;40.83;15.95;;;;;;;6.51;94.18;103714.91;5072979;28;20020;-69
2022/01/18 11:45:25;;;;;;;43.33;16.42;;;;;;;6.49;93.34;103706.13;5072869;28;20052;-70
2022/01/18 11:48:04;;;;;;;37.88;15.65;;;;;;;6.48;93.47;103708.94;5073125;28;20068;-70
2022/01/18 11:50:31;;;;;;;35.70;14.48;;;;;;;6.47;93.45;103709.91;5072854;28;20025;-70
2022/01/18 11:53:28;;;;;;;44.45;16.38;;;;;;;6.49;93.71;103710.63;5073055;28;20085;-70
2022/01/18 11:55:56;;;;;;;44.35;16.73;;;;;;;6.48;93.76;103706.25;5073280;28;20017;-70
2022/01/18 11:58:22;;;;;;;45.58;16.58;;;;;;;6.50;92.72;103710.50;5072702;28;20043;-70
2022/01/18 12:01:01;;;;;;;41.70;15.18;;;;;;;6.51;92.86;103706.00;5068742;28;20032;-70
2022/01/18 12:03:28;;;;;;;38.38;15.32;;;;;;;6.54;92.84;103711.94;5072639;28;20290;-71
2022/01/18 12:06:00;;;;;;;43.08;15.40;;;;;;;6.54;91.49;103701.19;5072867;28;20028;-70
2022/01/18 12:08:34;;;;;;;46.25;16.55;;;;;;;6.61;92.30;103701.53;5072569;28;20426;-70
2022/01/18 12:11:02;;;;;;;43.83;15.75;;;;;;;6.64;91.61;103700.41;5072773;28;20024;-70
2022/01/18 12:13:34;;;;;;;40.00;15.32;;;;;;;6.65;91.50;103696.75;5072552;28;20060;-70
2022/01/18 12:16:10;;;;;;;39.92;15.70;;;;;;;6.66;91.34;103691.25;5072737;28;20021;-70
2022/01/18 12:18:49;;;;;;;40.72;15.45;;;;;;;6.70;91.96;103691.81;5072531;28;20032;-71
2022/01/18 12:21:20;;;;;;;40.03;15.60;;;;;;;6.70;90.72;103691.81;5072504;28;20032;-70
2022/01/18 12:23:45;;;;;;;44.80;15.25;;;;;;;6.72;91.17;103695.25;5072736;28;20032;-70
2022/01/18 12:34:34;;;;;;;41.75;13.70;;;;;;;6.85;90.06;103687.81;5072501;28;20116;-70
2022/01/18 12:37:05;;;;;;;38.10;12.65;;;;;;;6.85;88.76;103685.13;5072495;28;20495;-71
2022/01/18 12:39:33;;;;;;;40.15;13.48;;;;;;;6.86;89.56;103675.25;5072376;28;20059;-70